ADDS TAF Board (Experimental) INFO

IDs: Format: Expanded Condensed

Updated at: 1523 UTC 18 Dec 2014

KSAN - San Diego Intl Arpt, CA, US

Issued at 1506 UTC 18 Dec 2014
Time1451Z18/16Z18/17Z18/18Z18/19Z18/20Z18/21Z18/22Z18/23Z19/00Z19/01Z19/02Z19/03Z19/04Z
TypeOBSPRVLPRVLPRVLPRVLPRVLPRVLPRVLPRVLPRVLPRVLPRVLPRVLPRVL
VIS10>6>6>6>6>6>6>6>6>6>6>6>6>6
CIG----------------------------
CoverSCTSCTSCTSCTSCTSCTSCTSCTSCTSCTSCTSCTSCTSCT
FltCat--VFRVFRVFRVFRVFRVFRVFRVFRVFRVFRVFRVFRVFR
WX--VCSHVCSHVCSH--------------------
WDir110VRBVRBVRB290290290290290290VRBVRBVRBVRB
WSpd33339999994444
WGst----------------------------
R09/27
XWnd-0VRBVRBVRB111111VRBVRBVRBVRB
HWnd3VRBVRBVRB-9-9-9-9-9-9VRBVRBVRBVRB
Raw TAF
KSAN 181506Z 1815/1918 VRB03KT P6SM VCSH SCT040 SCT080
  FM181900 29009KT P6SM SCT035 SCT080
  FM190100 VRB04KT P6SM SCT030
  TEMPO 1906/1910 BKN030
  FM191500 VRB04KT P6SM SCT030


Raw METAR
KSAN 181451Z 11003KT 10SM SCT060 SCT090 13/07 A3018 RMK AO2 SLP220 T01280072 53011

TAF Board Legend

Hazard VFR MVFR IFR LIFR
Visibility (sm) >5 3≤X≤5 1≤X<3 <1
Ceiling (100 ft) >30 10≤X≤30 5≤X<10 <5
Wind Speed (kt) <10 10≤X<20 20≤X<30 ≥30
Wind Gust (kt) <15 15≤X<25 25≤X<35 ≥35
Weather No Wx Reported VCTS,-TS,-FZRA TS,FZRA +TS,+FZRA


Page loaded:  15:23 UTC  |   07:23 AM Pacific  |   08:23 AM Mountain  |   09:23 AM Central  |   10:23 AM Eastern

 

ADVISORIES

FORECASTS

FORECASTS

OBSERVATIONS

USER TOOLS

ABOUT US